< < Back
Terminal Aerodrome Forecast


Current Version              Previous Versions:   1  2  3  4  5  6  7  8  9  

Terminal Aerodrome Forecast

927
FTUS44 KMOB 291700
TAFPNS
TAF
KPNS 291723Z 2918/3018 36007KT P6SM FEW040
     FM300000 35005KT P6SM SKC=



Latest METAR

218
SAUS70 KWBC 301300 RRD
MTRPNS
METAR KPNS 301253Z 03005KT 10SM CLR 21/14 A3004 RMK AO2 SLP174
T02110144


USA.gov is the U.S. government's official web portal to all federal, state and local government web resources and services.